Medicine Hat Airport, Alberta

Past 24 Hour Conditions

This table is a summary of hourly weather conditions for the past 24 hours. This summary includes the following parameters: temperature, humidity, dew point, wind speed and direction, air pressure, visibility and/or wind chill and humidex.
Date / Time
(MDT)
Conditions Temp (°F) Humidity (%) Dew Point (°F) Wind (mph) Pressure (inches) Vis (mi) Humidex
28 July 2014
18:00 Mostly Cloudy 91   17 41 NNE 7 30.1 30 *
17:00 Mostly Cloudy 89 19 42 ENE 8 30.1 30 *
16:00 Mostly Cloudy 91   19 44 E 5 30.1 30 *
15:00 Mostly Cloudy 90 20 44 E 10 30.2 30 *
14:00 Mostly Cloudy 88 23 47 calm 30.2 30 89
13:00 Mostly Cloudy 88 25 48 ESE 3 30.2 30 90
12:00 Partly Cloudy 83 30 49 E 4 30.2 30 84
11:00 Partly Cloudy 79 36 50 WSW 3 30.2 30 82
10:00 Mainly Sunny 75 45 52 calm 30.2 30 78
9:00 Mainly Sunny 70 52 52 NNE 3 30.2 30 *
8:00 Mainly Sunny 64 65 52 ENE 5 30.2 30 *
7:00 Partly Cloudy 60 75 52 NE 3 30.2 30 *
6:00 Sunny 56   83 51 NE 5 30.2 10 *
5:00 Mainly Clear 58 80 52 ENE 7 30.2 10 *
4:00 Mostly Cloudy 60 76 53 NE 8 30.2 10 *
3:00 Clear 60 77 53 NE 7 30.2 10 *
2:00 Clear 61 75 53 NE 8 30.2 10 *
1:00 Clear 61 75 53 NE 6 30.2 10 *
00:00 Clear 63 70 53 ENE 7 30.2 10 *
27 July 2014
23:00 Clear 67 58 52 E 7 30.2 10 *
22:00 Clear 71 48 51 E 11 30.2 10 *
21:00 Mainly Sunny 74 46 53 ENE 8 30.2 30 78
20:00 Sunny 80 32 48 ENE 7 30.2 30 82
19:00 Mainly Sunny 82 30 48 E 4 30.2 30 84
18:00 Mainly Sunny 83 27 46 SE 3 30.2 30 83
N/A
Not available
 ↑ 
Highest temperature
 ↓ 
Lowest temperature
*
Value not significant.

If you require additional historical weather information, please visit Climate Data Online.